createdAt,value
2023-03-23T15:59:47.240Z,12.50
2023-03-23T16:02:22.603Z,12.50
2023-03-23T16:04:54.147Z,12.70
2023-03-23T16:07:25.132Z,12.80
2023-03-23T16:09:53.606Z,12.60
2023-03-23T16:12:23.765Z,12.40
2023-03-23T16:14:53.807Z,12.40
2023-03-23T16:17:23.256Z,12.60
2023-03-23T16:19:56.680Z,12.70
2023-03-23T16:22:25.897Z,12.90
2023-03-23T16:24:54.386Z,13.00
2023-03-23T16:27:24.262Z,13.10
2023-03-23T16:30:03.127Z,13.20
2023-03-23T16:35:02.997Z,12.90
2023-03-23T16:37:33.786Z,12.90
2023-03-23T16:40:02.297Z,12.90
2023-03-23T16:42:31.070Z,12.90
2023-03-23T16:44:59.722Z,12.80
2023-03-23T16:47:28.157Z,12.70
2023-03-23T16:49:56.428Z,12.60
2023-03-23T16:52:26.253Z,12.50
2023-03-23T16:54:55.123Z,12.50
2023-03-23T16:57:23.882Z,12.40
2023-03-23T16:59:52.899Z,12.40
2023-03-23T17:02:21.199Z,12.30
2023-03-23T17:04:49.726Z,12.30
2023-03-23T17:07:18.532Z,12.20
2023-03-23T17:09:48.455Z,12.20
2023-03-23T17:12:17.579Z,12.20
2023-03-23T17:14:47.035Z,12.20
2023-03-23T17:17:16.350Z,12.20
2023-03-23T17:19:45.080Z,12.20
2023-03-23T17:22:16.443Z,12.20
2023-03-23T17:24:47.766Z,12.20
2023-03-23T17:27:19.706Z,12.20
2023-03-23T17:29:48.799Z,12.20
2023-03-23T17:32:19.796Z,12.20
2023-03-23T17:34:49.657Z,12.20
2023-03-23T17:37:18.536Z,12.20
2023-03-23T17:39:47.975Z,12.10
2023-03-23T17:42:18.254Z,12.10
2023-03-23T17:44:49.249Z,12.10
2023-03-23T17:47:17.523Z,12.00
2023-03-23T17:49:46.538Z,12.00
2023-03-23T17:52:15.129Z,11.90
2023-03-23T17:54:43.504Z,11.80
2023-03-23T17:57:12.385Z,11.70
2023-03-23T17:59:42.106Z,11.60
2023-03-23T18:02:14.005Z,11.60
2023-03-23T18:04:43.182Z,11.50
2023-03-23T18:07:11.355Z,11.40
2023-03-23T18:09:39.628Z,11.30
2023-03-23T18:12:08.292Z,11.30
2023-03-23T18:14:38.489Z,11.20
2023-03-23T18:17:08.919Z,11.20
2023-03-23T18:19:37.627Z,11.20
2023-03-23T18:22:06.147Z,11.10
2023-03-23T18:24:34.320Z,11.10
2023-03-23T18:27:02.655Z,11.10
2023-03-23T18:29:30.708Z,11.10
2023-03-23T18:31:59.073Z,11.20
2023-03-23T18:34:28.672Z,11.20
2023-03-23T18:36:57.018Z,11.20
2023-03-23T18:39:25.193Z,11.20
2023-03-23T18:41:53.540Z,11.20
2023-03-23T18:44:21.674Z,11.10
2023-03-23T18:46:50.014Z,11.10
2023-03-23T18:49:18.387Z,11.10
2023-03-23T18:51:48.079Z,11.00
2023-03-23T18:54:17.790Z,11.10
2023-03-23T18:56:46.240Z,11.10
2023-03-23T18:59:14.496Z,11.00
2023-03-23T19:01:42.720Z,11.00
2023-03-23T19:04:13.635Z,11.00
2023-03-23T19:06:42.948Z,11.00
2023-03-23T19:09:13.223Z,11.00
2023-03-23T19:11:41.700Z,11.00
2023-03-23T19:14:09.997Z,10.90
2023-03-23T19:16:38.368Z,11.00
2023-03-23T19:19:08.304Z,11.10
2023-03-23T19:21:40.504Z,11.10
2023-03-23T19:24:10.210Z,11.20
2023-03-23T19:26:43.445Z,11.40
2023-03-23T19:31:46.535Z,11.50
2023-03-23T19:34:16.961Z,11.50
2023-03-23T19:36:54.177Z,11.50
2023-03-23T19:39:25.277Z,11.50
2023-03-23T19:41:56.269Z,11.50
2023-03-23T19:44:28.569Z,11.50
2023-03-23T19:46:58.628Z,11.60
2023-03-23T19:49:27.125Z,11.70
2023-03-23T19:52:08.923Z,11.60
2023-03-23T19:54:42.721Z,11.60
2023-03-23T19:57:14.601Z,11.60
2023-03-23T19:59:44.344Z,11.60
2023-03-23T20:02:15.316Z,11.50
2023-03-23T20:04:45.936Z,11.50
2023-03-23T20:07:14.919Z,11.50
2023-03-23T20:09:44.865Z,11.70
2023-03-23T20:12:16.932Z,11.60
2023-03-23T20:14:47.589Z,11.60
2023-03-23T20:17:15.836Z,11.60
2023-03-23T20:19:45.724Z,11.60
2023-03-23T20:22:14.754Z,11.50
2023-03-23T20:24:45.275Z,11.50
2023-03-23T20:27:15.512Z,11.50
2023-03-23T20:29:44.234Z,11.50
2023-03-23T20:32:13.338Z,11.40
2023-03-23T20:34:41.963Z,11.30
2023-03-23T20:37:16.276Z,11.40
2023-03-23T20:39:46.252Z,11.30
2023-03-23T20:42:17.359Z,11.30
2023-03-23T20:44:46.031Z,11.40
2023-03-23T20:47:15.578Z,11.40
2023-03-23T20:49:53.170Z,11.30
2023-03-23T20:52:24.233Z,11.30
2023-03-23T20:54:56.504Z,11.40
2023-03-23T20:57:28.974Z,11.30
2023-03-23T20:59:59.654Z,11.30
2023-03-23T21:02:30.185Z,11.30
2023-03-23T21:05:04.830Z,11.40
2023-03-23T21:07:34.296Z,11.40
2023-03-23T21:10:06.491Z,11.50
2023-03-23T21:12:36.761Z,11.60
2023-03-23T21:15:06.829Z,11.60
2023-03-23T21:17:35.568Z,11.70
2023-03-23T21:20:08.025Z,11.70
2023-03-23T21:22:36.777Z,11.70
2023-03-23T21:25:05.596Z,11.70
2023-03-23T21:27:36.199Z,11.80
2023-03-23T21:30:08.085Z,12.00
2023-03-23T21:32:36.590Z,12.10
2023-03-23T21:35:05.013Z,12.10
2023-03-23T21:37:33.764Z,12.30
2023-03-23T21:40:02.516Z,12.30
2023-03-23T21:42:32.339Z,12.40
2023-03-23T21:45:03.525Z,12.40
2023-03-23T21:47:32.817Z,12.50
2023-03-23T21:50:02.032Z,12.60
2023-03-23T21:52:31.233Z,12.50
2023-03-23T21:54:59.748Z,12.60
2023-03-23T21:57:29.386Z,12.60
2023-03-23T21:59:58.585Z,12.70
2023-03-23T22:02:28.519Z,12.80
2023-03-23T22:04:57.333Z,12.80
2023-03-23T22:07:28.766Z,12.80
2023-03-23T22:09:59.274Z,12.80
2023-03-23T22:12:28.181Z,12.80
2023-03-23T22:14:56.406Z,12.80
2023-03-23T22:17:24.689Z,12.80
2023-03-23T22:19:54.464Z,12.90
2023-03-23T22:22:22.789Z,12.80
2023-03-23T22:24:51.796Z,12.90
2023-03-23T22:27:20.232Z,12.90
2023-03-23T22:29:48.469Z,12.90
2023-03-23T22:32:17.069Z,12.90
2023-03-23T22:34:47.564Z,12.90
2023-03-23T22:37:19.702Z,12.90
2023-03-23T22:39:50.228Z,13.00
2023-03-23T22:42:18.845Z,12.90
2023-03-23T22:44:47.588Z,12.90
2023-03-23T22:47:15.886Z,12.90
2023-03-23T22:49:44.315Z,12.90
2023-03-23T22:52:12.813Z,13.00
2023-03-23T22:54:42.499Z,13.00
2023-03-23T22:57:11.510Z,12.90
2023-03-23T22:59:39.804Z,12.90
2023-03-23T23:02:07.994Z,12.90
2023-03-23T23:04:37.054Z,12.90
2023-03-23T23:07:12.861Z,12.90
2023-03-23T23:09:43.559Z,12.90
2023-03-23T23:12:13.923Z,12.80
2023-03-23T23:14:44.722Z,12.70
2023-03-23T23:17:15.361Z,12.80
2023-03-23T23:19:43.546Z,12.70
2023-03-23T23:22:18.881Z,12.80
2023-03-23T23:24:49.075Z,12.80
2023-03-23T23:27:18.087Z,12.70
2023-03-23T23:29:46.311Z,12.60
2023-03-23T23:32:14.509Z,12.50
2023-03-23T23:34:42.755Z,12.30
2023-03-23T23:37:10.931Z,12.20
2023-03-23T23:39:41.149Z,12.20
2023-03-23T23:42:10.945Z,12.10
2023-03-23T23:44:39.251Z,12.00
2023-03-23T23:47:07.695Z,12.00
2023-03-23T23:49:35.960Z,12.00
2023-03-23T23:52:04.068Z,12.00
2023-03-23T23:54:32.201Z,12.10
2023-03-23T23:57:01.495Z,12.00
2023-03-23T23:59:31.588Z,12.10
